MCF weather

Mac Dill Air Force Base
Tampa, Florida, United States

Public forecast

Using degrees Fahrenheit for public forecast. Weather courtesy of forecast.io.

Current aviation weather report (METAR) for Mac Dill Air Force Base

Retrieved 2020/02/25 10:56 UTC (1 hour ago):

KMCF 251056Z AUTO 15008KT 10SM CLR 19/16 A2990 RMK AO2 SLP128 T01880162 FZRANO

Aviation forecast (TAF) for Mac Dill Air Force Base

Retrieved 2020/02/25 09:03 UTC (3 hours ago):

TAF KMCF 250900Z 2509/2615 18009KT 9999 FEW050 QNH2987INS BECMG 2515/2516 19012KT 9999 SCT025 BKN030 QNH2991INS BECMG 2603/2604 19009KT 8000 SHRA SCT020 BKN030 QNH2993INS TX24/2517Z TN19/2509Z